地図

経路データ

SID SEASON NUMBER BASIN SUBBASIN NAME ISO_TIME NATURE LAT LON WMO_WIND WMO_PRES WMO_AGENCY TRACK_TYPE DIST2LAND LANDFALL IFLAG USA_AGENCY USA_ATCF_ID USA_LAT USA_LON USA_RECORD USA_STATUS USA_WIND USA_PRES USA_SSHS USA_R34_NE USA_R34_SE USA_R34_SW USA_R34_NW USA_R50_NE USA_R50_SE USA_R50_SW USA_R50_NW USA_R64_NE USA_R64_SE USA_R64_SW USA_R64_NW USA_POCI USA_ROCI USA_RMW USA_EYE TOKYO_LAT TOKYO_LON TOKYO_GRADE TOKYO_WIND TOKYO_PRES TOKYO_R50_DIR TOKYO_R50_LONG TOKYO_R50_SHORT TOKYO_R30_DIR TOKYO_R30_LONG TOKYO_R30_SHORT TOKYO_LAND CMA_LAT CMA_LON CMA_CAT CMA_WIND CMA_PRES HKO_LAT HKO_LON HKO_CAT HKO_WIND HKO_PRES NEWDELHI_LAT NEWDELHI_LON NEWDELHI_GRADE NEWDELHI_WIND NEWDELHI_PRES NEWDELHI_CI NEWDELHI_DP NEWDELHI_POCI REUNION_LAT REUNION_LON REUNION_TYPE REUNION_WIND REUNION_PRES REUNION_TNUM REUNION_CI REUNION_RMW REUNION_R34_NE REUNION_R34_SE REUNION_R34_SW REUNION_R34_NW REUNION_R50_NE REUNION_R50_SE REUNION_R50_SW REUNION_R50_NW REUNION_R64_NE REUNION_R64_SE REUNION_R64_SW REUNION_R64_NW BOM_LAT BOM_LON BOM_TYPE BOM_WIND BOM_PRES BOM_TNUM BOM_CI BOM_RMW BOM_R34_NE BOM_R34_SE BOM_R34_SW BOM_R34_NW BOM_R50_NE BOM_R50_SE BOM_R50_SW BOM_R50_NW BOM_R64_NE BOM_R64_SE BOM_R64_SW BOM_R64_NW BOM_ROCI BOM_POCI BOM_EYE BOM_POS_METHOD BOM_PRES_METHOD NADI_LAT NADI_LON NADI_CAT NADI_WIND NADI_PRES WELLINGTON_LAT WELLINGTON_LON WELLINGTON_WIND WELLINGTON_PRES DS824_LAT DS824_LON DS824_STAGE DS824_WIND DS824_PRES TD9636_LAT TD9636_LON TD9636_STAGE TD9636_WIND TD9636_PRES TD9635_LAT TD9635_LON TD9635_WIND TD9635_PRES TD9635_ROCI NEUMANN_LAT NEUMANN_LON NEUMANN_CLASS NEUMANN_WIND NEUMANN_PRES MLC_LAT MLC_LON MLC_CLASS MLC_WIND MLC_PRES USA_GUST BOM_GUST BOM_GUST_PER REUNION_GUST REUNION_GUST_PER USA_SEAHGT USA_SEARAD_NE USA_SEARAD_SE USA_SEARAD_SW USA_SEARAD_NW STORM_SPEED STORM_DIR
1950126N09151 1950 24 WP MM DORIS 1950-05-06 00:00:00 TS 8.60000 150.800 main 1256 1236 __O___________ -1 8.60000 150.800 1 29 1000 7 254
1950126N09151 1950 24 WP MM DORIS 1950-05-06 03:00:00 TS 8.50004 150.455 main 1236 1214 __P___________ -1 8.50004 150.455 1 33 997 7 254
1950126N09151 1950 24 WP MM DORIS 1950-05-06 06:00:00 TS 8.40000 150.100 main 1214 1193 __O___________ -1 8.40000 150.100 2 38 995 7 254
1950126N09151 1950 24 WP MM DORIS 1950-05-06 09:00:00 TS 8.30000 149.735 main 1193 1138 __P___________ -1 8.30000 149.735 2 43 992 7 0
1950126N09151 1950 24 WP MM DORIS 1950-05-06 12:00:00 TS 7.70000 150.100 main 1138 1124 O_O______OOO__ jtwc_wp WP011950 7.20000 150.800 30 -1 8.20000 149.400 3 48 990 7.20000 150.800 TC 30 7.20000 150.800 1 30 7.20000 150.800 30 999 180 7 164
1950126N09151 1950 24 WP MM DORIS 1950-05-06 15:00:00 TS 7.66361 149.913 main 1132 1127 P_P______PPP__ WP011950 7.43255 150.312 40 0 8.09242 149.150 3 53 987 7.43255 150.312 TC 40 7.49918 150.238 1 40 7.43255 150.312 40 992 180 5 280
1950126N09151 1950 24 WP MM DORIS 1950-05-06 18:00:00 TS 7.79157 149.556 main 1135 1131 O_O______OPO__ jtwc_wp WP011950 7.70000 149.800 50 0 8.00000 148.900 3 58 985 7.70000 149.800 TC 50 7.78838 149.701 1 50 7.70000 149.800 50 985 180 9 293
1950126N09151 1950 24 WP MM DORIS 1950-05-06 21:00:00 TS 8.00320 149.113 main 1147 1145 P_P______PPP__ WP011950 8.01505 149.263 60 0 7.91250 148.565 3 63 982 8.01505 149.263 TC 60 8.05835 149.213 1 60 8.01505 149.263 60 978 210 10 296
1950126N09151 1950 24 WP MM DORIS 1950-05-07 00:00:00 TS 8.22000 148.680 main 1163 1161 O_O______OOO__ jtwc_wp WP011950 8.30000 148.800 70 1 7.90000 148.200 4 68 980 8.30000 148.800 TC 70 8.30000 148.800 3 70 8.30000 148.800 70 971 240 8 297
1950126N09151 1950 24 WP MM DORIS 1950-05-07 03:00:00 TS 8.38141 148.373 main 1181 1180 P_P______PPP__ WP011950 8.46489 148.512 72 1 8.00497 147.850 4 72 977 8.46489 148.512 TC 72 8.50743 148.478 3 72 8.46489 148.512 72 963 240 6 300
1950126N09151 1950 24 WP MM DORIS 1950-05-07 06:00:00 TS 8.53741 148.125 main 1190 1190 O_O______OPO__ jtwc_wp WP011950 8.60000 148.300 75 1 8.20000 147.500 4 77 975 8.60000 148.300 TC 75 8.68703 148.225 3 75 8.60000 148.300 75 956 240 6 305
1950126N09151 1950 24 WP MM DORIS 1950-05-07 09:00:00 TS 8.73511 147.862 main 1211 1211 P_P______PPP__ WP011950 8.79998 148.050 77 1 8.42747 147.150 4 77 975 8.79998 148.050 TC 77 8.84813 148.009 3 77 8.79998 148.050 77 948 240 7 308
1950126N09151 1950 24 WP MM DORIS 1950-05-07 12:00:00 TS 8.94000 147.600 main 1232 1232 O_O______OOO__ jtwc_wp WP011950 9.00000 147.800 80 1 8.70000 146.800 4 77 975 9.00000 147.800 TC 80 9.00000 147.800 4 80 9.00000 147.800 80 941 240 7 306
1950126N09151 1950 24 WP MM DORIS 1950-05-07 15:00:00 TS 9.12278 147.330 main 1255 1255 P_P______PPP__ WP011950 9.15748 147.550 82 1 8.99251 146.435 4 77 972 9.15748 147.550 TC 82 9.14892 147.566 4 81 9.15748 147.550 82 938 240 6 304
1950126N09151 1950 24 WP MM DORIS 1950-05-07 18:00:00 TS 9.29846 147.066 main 1277 1277 O_O______OPO__ jtwc_wp WP011950 9.30000 147.300 85 2 9.30000 146.100 4 77 970 9.30000 147.300 TC 85 9.29229 147.330 4 82 9.30000 147.300 85 936 240 6 305
1950126N09151 1950 24 WP MM DORIS 1950-05-07 21:00:00 TS 9.47486 146.820 main 1299 1299 P_P______PPP__ WP011950 9.44245 147.065 85 2 9.60746 145.827 4 77 970 9.44245 147.065 TC 85 9.43952 147.079 4 83 9.44245 147.065 85 933 240 6 306
1950126N09151 1950 24 WP MM DORIS 1950-05-08 00:00:00 TS 9.66000 146.560 main 1322 1322 O_O______OOO__ jtwc_wp WP011950 9.60000 146.800 85 2 9.90000 145.600 4 77 970 9.60000 146.800 TC 85 9.60000 146.800 4 85 9.60000 146.800 85 930 240 7 305
1950126N09151 1950 24 WP MM DORIS 1950-05-08 03:00:00 TS 9.85691 146.259 main 1345 1345 P_P______PPP__ WP011950 9.79251 146.465 85 2 10.1500 145.400 4 82 967 9.79251 146.465 TC 85 9.75706 146.499 4 85 9.79251 146.465 85 927 240 7 303
1950126N09151 1950 24 WP MM DORIS 1950-05-08 06:00:00 TS 10.0665 145.933 main 1369 1369 O_O______OPO__ jtwc_wp WP011950 10.0000 146.100 85 2 10.4000 145.200 5 87 965 10.0000 146.100 TC 85 9.93228 146.167 4 85 10.0000 146.100 85 925 240 8 303
1950126N09151 1950 24 WP MM DORIS 1950-05-08 09:00:00 TS 10.2732 145.617 main 1393 1393 P_P______PPP__ WP011950 10.1774 145.772 85 2 10.6925 144.965 5 87 965 10.1774 145.772 TC 85 10.1414 145.802 4 85 10.1774 145.772 85 923 270 8 304
1950126N09151 1950 24 WP MM DORIS 1950-05-08 12:00:00 TS 10.5200 145.260 main 1419 1419 O_O______OOO__ jtwc_wp WP011950 10.4000 145.400 85 2 11.0000 144.700 5 87 965 10.4000 145.400 TC 85 10.4000 145.400 4 85 10.4000 145.400 85 922 300 10 306
1950126N09151 1950 24 WP MM DORIS 1950-05-08 15:00:00 TS 10.8425 144.826 main 1459 1459 P_P______PPP__ WP011950 10.7201 144.915 85 2 11.3074 144.430 5 92 962 10.7201 144.915 TC 85 10.7451 144.953 4 88 10.7201 144.915 85 923 300 11 308
1950126N09151 1950 24 WP MM DORIS 1950-05-08 18:00:00 TS 11.2070 144.355 main 1509 1509 O_O______OPO__ jtwc_wp WP011950 11.1000 144.400 85 2 11.6000 144.100 5 97 960 11.1000 144.400 TC 85 11.1352 144.473 4 92 11.1000 144.400 85 925 300 12 309
1950126N09151 1950 24 WP MM DORIS 1950-05-08 21:00:00 TS 11.5915 143.895 main 1563 1563 P_P______PPP__ WP011950 11.5149 143.943 92 2 11.8801 143.665 5 97 960 11.5149 143.943 TC 92 11.5326 143.981 4 96 11.5149 143.943 92 927 300 12 309
1950126N09151 1950 24 WP MM DORIS 1950-05-09 00:00:00 TS 11.9400 143.440 main 1608 1608 O_O______OOO__ jtwc_wp WP011950 11.9000 143.500 100 3 12.1000 143.200 5 97 960 11.9000 143.500 TC 100 11.9000 143.500 4 100 11.9000 143.500 100 929 300 11 304
1950126N09151 1950 24 WP MM DORIS 1950-05-09 03:00:00 TS 12.1836 142.995 main 1634 1631 P_P______PPP__ WP011950 12.1725 143.042 107 3 12.2149 142.792 5 101 960 12.1725 143.042 TC 107 12.1856 143.056 4 103 12.1725 143.042 107 928 270 10 298
1950126N09151 1950 24 WP MM DORIS 1950-05-09 06:00:00 TS 12.3874 142.565 main 1642 1635 O_O______OPO__ jtwc_wp WP011950 12.4000 142.600 115 4 12.3000 142.400 6 106 960 12.4000 142.600 TC 115 12.4371 142.627 4 107 12.4000 142.600 115 927 240 9 298
1950126N09151 1950 24 WP MM DORIS 1950-05-09 09:00:00 TS 12.6184 142.157 main 1651 1648 P_P______PPP__ WP011950 12.6649 142.192 115 4 12.4274 142.000 6 106 960 12.6649 142.192 TC 115 12.6701 142.209 4 111 12.6649 142.192 115 926 240 9 300
1950126N09151 1950 24 WP MM DORIS 1950-05-09 12:00:00 TS 12.8400 141.760 main 1657 1654 O_O______OOO__ jtwc_wp WP011950 12.9000 141.800 115 4 12.6000 141.600 6 106 960 12.9000 141.800 TC 115 12.9000 141.800 4 115 12.9000 141.800 115 925 240 9 297
1950126N09151 1950 24 WP MM DORIS 1950-05-09 15:00:00 TS 13.0187 141.357 main 1661 1657 P_P______PPP__ WP011950 13.0349 141.400 115 4 12.8349 141.207 6 111 957 13.0349 141.400 TC 115 13.1540 141.376 4 118 13.0349 141.400 115 925 240 9 296
1950126N09151 1950 24 WP MM DORIS 1950-05-09 18:00:00 TS 13.2215 140.952 main 1666 1631 O_O______OPO__ jtwc_wp WP011950 13.2000 141.000 115 4 13.1000 140.800 6 116 955 13.2000 141.000 TC 115 13.4074 140.962 4 122 13.2000 141.000 115 926 240 10 302
1950126N09151 1950 24 WP MM DORIS 1950-05-09 21:00:00 TS 13.5269 140.533 main 1622 1595 P_P______PPP__ WP011950 13.5425 140.585 122 4 13.3500 140.342 6 116 955 13.5425 140.585 TC 122 13.6572 140.567 4 126 13.5425 140.585 122 926 270 10 308
1950126N09151 1950 24 WP MM DORIS 1950-05-10 00:00:00 TS 13.8400 140.140 main 1584 1557 O_O______OOO__ jtwc_wp WP011950 13.9000 140.200 130 4 13.6000 139.900 6 116 955 13.9000 140.200 TC 130 13.9000 140.200 4 130 13.9000 140.200 130 927 300 9 308
1950126N09151 1950 24 WP MM DORIS 1950-05-10 03:00:00 TS 14.0694 139.807 main 1559 1532 P_P______PPP__ WP011950 14.1149 139.885 130 4 13.8499 139.520 6 116 952 14.1149 139.885 TC 130 14.1522 139.863 4 130 14.1149 139.885 130 928 270 8 306
1950126N09151 1950 24 WP MM DORIS 1950-05-10 06:00:00 TS 14.2789 139.511 main 1532 1504 O_O______OPO__ jtwc_wp WP011950 14.3000 139.600 130 4 14.1000 139.200 6 116 950 14.3000 139.600 TC 130 14.3947 139.555 4 130 14.3000 139.600 130 929 240 7 309
1950126N09151 1950 24 WP MM DORIS 1950-05-10 09:00:00 TS 14.5319 139.224 main 1504 1487 P_P______PPP__ WP011950 14.5650 139.300 130 4 14.3499 138.950 6 121 945 14.5650 139.300 TC 130 14.6148 139.269 4 130 14.5650 139.300 130 929 270 7 311
1950126N09151 1950 24 WP MM DORIS 1950-05-10 12:00:00 TS 14.7600 138.940 main 1478 1459 O_O______OOO__ jtwc_wp WP011950 14.8000 139.000 130 4 14.6000 138.700 6 126 940 14.8000 139.000 TC 130 14.8000 139.000 4 130 14.8000 139.000 130 930 300 7 303
1950126N09151 1950 24 WP MM DORIS 1950-05-10 15:00:00 TS 14.9000 138.636 main 1448 1429 P_P______PPP__ WP011950 14.9225 138.685 130 4 14.8500 138.357 6 131 937 14.9225 138.685 TC 130 14.8827 138.767 4 128 14.9225 138.685 130 929 360 6 293
1950126N09151 1950 24 WP MM DORIS 1950-05-10 18:00:00 TS 15.0079 138.349 main 1418 1400 O_O______OPO__ jtwc_wp WP011950 15.0000 138.400 130 4 15.1000 138.000 6 136 935 15.0000 138.400 TC 130 14.9393 138.543 4 127 15.0000 138.400 130 929 420 5 293
1950126N09151 1950 24 WP MM DORIS 1950-05-10 21:00:00 TS 15.1066 138.133 main 1400 1381 P_P______PPP__ WP011950 15.0548 138.222 127 4 15.3424 137.700 6 136 932 15.0548 138.222 TC 127 15.0263 138.298 4 126 15.0548 138.222 127 928 390 5 301
1950126N09151 1950 24 WP MM DORIS 1950-05-11 00:00:00 TS 15.2800 137.880 main 1383 1350 O_O______OOO__ jtwc_wp WP011950 15.2000 138.000 125 4 15.6000 137.400 6 136 930 15.2000 138.000 TC 125 15.2000 138.000 4 125 15.2000 138.000 125 928 360 8 309
1950126N09151 1950 24 WP MM DORIS 1950-05-11 03:00:00 TS 15.6078 137.479 main 1350 1311 P_P______PPP__ WP011950 15.5476 137.588 107 3 15.8925 137.050 6 136 932 15.5476 137.588 TC 107 15.5037 137.584 4 115 15.5476 137.588 107 928 360 11 312
1950126N09151 1950 24 WP MM DORIS 1950-05-11 06:00:00 TS 16.0202 137.023 main 1311 1285 O_O______OPO__ jtwc_wp WP011950 16.0000 137.100 90 2 16.2000 136.700 6 136 935 16.0000 137.100 TC 90 15.9009 137.116 4 105 16.0000 137.100 90 929 360 12 314
1950126N09151 1950 24 WP MM DORIS 1950-05-11 09:00:00 TS 16.4295 136.590 main 1285 1261 P_P______PPP__ WP011950 16.4350 136.635 87 2 16.4699 136.407 6 136 935 16.4350 136.635 TC 87 16.3725 136.640 4 95 16.4350 136.635 87 929 390 12 317
1950126N09151 1950 24 WP MM DORIS 1950-05-11 12:00:00 TS 16.8800 136.180 main 1266 1246 O_O______OOO__ jtwc_wp WP011950 16.9000 136.200 85 2 16.8000 136.100 6 136 935 16.9000 136.200 TC 85 16.9000 136.200 4 85 16.9000 136.200 85 930 420 12 320
1950126N09151 1950 24 WP MM DORIS 1950-05-11 15:00:00 TS 17.3487 135.784 main 1246 1237 P_P______PPP__ WP011950 17.3624 135.820 85 2 17.2552 135.685 6 136 935 17.3624 135.820 TC 85 17.4010 135.773 4 88 17.3624 135.820 85 932 510 12 325
1950126N09151 1950 24 WP MM DORIS 1950-05-11 18:00:00 TS 17.8915 135.440 main 1239 1239 O_O______OPO__ jtwc_wp WP011950 17.9000 135.500 85 2 17.8000 135.300 6 136 935 17.9000 135.500 TC 85 17.9576 135.400 4 92 17.9000 135.500 85 935 600 13 332
1950126N09151 1950 24 WP MM DORIS 1950-05-11 21:00:00 TS 18.5181 135.142 main 1247 1247 P_P______PPP__ WP011950 18.5400 135.183 92 2 18.3849 135.033 6 131 937 18.5400 135.183 TC 92 18.5854 135.127 4 96 18.5400 135.183 92 937 570 14 342
1950126N09151 1950 24 WP MM DORIS 1950-05-12 00:00:00 TS 19.2400 134.980 main 1275 1275 O_O______OOO__ jtwc_wp WP011950 19.3000 135.000 100 3 19.0000 134.900 6 126 940 19.3000 135.000 TC 100 19.3000 135.000 4 100 19.3000 135.000 100 940 540 15 354
1950126N09151 1950 24 WP MM DORIS 1950-05-12 03:00:00 TS 20.0441 134.988 main 1301 1210 P_P______PPP__ WP011950 20.1699 135.010 100 3 19.5774 134.875 6 126 940 20.1699 135.010 TC 100 20.1335 135.032 4 100 20.1699 135.010 100 942 510 17 6
1950126N09151 1950 24 WP MM DORIS 1950-05-12 06:00:00 TS 20.9094 135.163 main 1214 1138 O_O______OPO__ jtwc_wp WP011950 21.1000 135.200 100 3 20.2000 135.000 6 126 940 21.1000 135.200 TC 100 21.0469 135.216 4 100 21.1000 135.200 100 945 480 18 14
1950126N09151 1950 24 WP MM DORIS 1950-05-12 09:00:00 TS 21.7918 135.448 main 1128 1065 P_P______PPP__ WP011950 22.0225 135.497 100 3 20.9049 135.233 6 121 940 22.0225 135.497 TC 100 21.9868 135.517 4 100 22.0225 135.497 100 947 450 19 20
1950126N09151 1950 24 WP MM DORIS 1950-05-12 12:00:00 TS 22.6600 135.840 main 1055 1007 O_O______OOO__ jtwc_wp WP011950 22.9000 135.900 100 3 21.7000 135.600 6 116 940 22.9000 135.900 TC 100 22.9000 135.900 4 100 22.9000 135.900 100 950 420 18 24
1950126N09151 1950 24 WP MM DORIS 1950-05-12 15:00:00 TS 23.4523 136.261 main 1003 957 P_P______PPP__ WP011950 23.6649 136.328 100 3 22.5399 136.049 6 116 942 23.6649 136.328 TC 100 23.7266 136.272 4 93 23.6649 136.328 100 951 450 18 28
1950126N09151 1950 24 WP MM DORIS 1950-05-12 18:00:00 TS 24.2433 136.743 main 957 903 O_O______OPO__ jtwc_wp WP011950 24.4000 136.800 100 3 23.5000 136.600 6 116 945 24.4000 136.800 TC 100 24.5166 136.717 4 87 24.4000 136.800 100 952 480 19 29
1950126N09151 1950 24 WP MM DORIS 1950-05-12 21:00:00 TS 25.0999 137.251 main 909 858 P_P______PPP__ WP011950 25.1996 137.263 87 2 24.6276 137.235 6 116 945 25.1996 137.263 TC 87 25.2732 137.229 4 81 25.1996 137.263 87 953 420 20 30
1950126N09151 1950 24 WP MM DORIS 1950-05-13 00:00:00 TS 25.9600 137.820 main 848 788 O_O______OOO__ jtwc_wp WP011950 26.0000 137.800 75 1 25.8000 137.900 6 116 945 26.0000 137.800 TC 75 26.0000 137.800 4 75 26.0000 137.800 75 955 360 20 33
1950126N09151 1950 24 WP MM DORIS 1950-05-13 03:00:00 TS 26.7930 138.468 main 780 730 P_P______PPP__ WP011950 26.7801 138.477 67 1 26.9171 138.515 6 111 947 26.7801 138.477 TC 67 26.7073 138.394 4 71 26.7801 138.477 67 956 390 20 37
1950126N09151 1950 24 WP MM DORIS 1950-05-13 06:00:00 TS 27.5573 139.149 main 719 689 O_O______OPO__ jtwc_wp WP011950 27.5000 139.200 60 0 27.9000 139.100 6 106 950 27.5000 139.200 TC 60 27.3867 139.047 4 67 27.5000 139.200 60 957 420 18 39
1950126N09151 1950 24 WP MM DORIS 1950-05-13 09:00:00 TS 28.2039 139.774 main 694 664 P_P______PPP__ WP011950 28.1142 139.837 60 0 28.6289 139.608 6 106 950 28.1142 139.837 TC 60 28.0477 139.751 4 63 28.1142 139.837 60 958 420 17 42
1950126N09151 1950 24 WP MM DORIS 1950-05-13 12:00:00 TS 28.8200 140.440 main 664 611 O_O______OOO__ jtwc_wp WP011950 28.7000 140.500 60 0 29.3000 140.200 6 106 950 28.7000 140.500 TC 60 28.7000 140.500 2 60 28.7000 140.500 60 960 420 18 44
1950126N09151 1950 24 WP MM DORIS 1950-05-13 15:00:00 TS 29.5089 141.225 main 611 559 P_P______PPP__ WP011950 29.3498 141.270 60 0 30.1350 141.033 6 101 952 29.3498 141.270 TC 60 29.3602 141.280 2 58 29.3498 141.270 60 961 420 20 46
1950126N09151 1950 24 WP MM DORIS 1950-05-13 18:00:00 TS 30.2105 142.079 main 563 531 O_O______OIO__ jtwc_wp WP011950 30.0000 142.100 60 0 31.0000 142.000 5 97 955 30.0000 142.100 TC 60 30.0000 142.100 3 57 30.0000 142.100 60 963 420 20 47
1950126N09151 1950 24 WP MM DORIS 1950-05-13 21:00:00 TS 30.8753 142.942 main 526 510 P_P______PPP__ WP011950 30.6224 142.958 57 0 31.7669 142.894 5 92 957 30.6224 142.958 TC 57 30.6101 142.942 3 56 30.6224 142.958 57 964 330 21 48
1950126N09151 1950 24 WP MM DORIS 1950-05-14 00:00:00 TS 31.6000 143.857 main 515 504 O_O______OOO__ jtwc_wp WP011950 31.2000 143.800 55 0 32.6000 144.000 5 87 960 31.2000 143.800 TC 55 31.2000 143.800 2 55 31.2000 143.800 55 966 240 23 46
1950126N09151 1950 24 WP MM DORIS 1950-05-14 03:00:00 TS 32.4802 144.917 main 512 510 P_P______P_P__ WP011950 31.7181 144.571 65 1 33.6233 145.436 5 77 965 31.7181 144.571 TC 65 2 31.7181 144.571 65 967 240 30 47
1950126N09151 1950 24 WP MM DORIS 1950-05-14 06:00:00 MX 33.6286 146.443 main 553 553 O_O______O_O__ jtwc_wp WP011950 32.2000 145.300 75 1 34.7000 147.300 9 68 970 32.2000 145.300 TC 75 32.2000 145.300 75 969 240 52 51
1950126N09151 1950 24 WP MM DORIS 1950-05-14 09:00:00 ET 35.7471 149.728 main 781 781 __P___________ WP011950 -1 35.7471 149.728 9 972 TC 56 58
1950126N09151 1950 24 WP MM DORIS 1950-05-14 12:00:00 ET 36.6000 152.200 main 928 928 __O___________ -1 36.6000 152.200 9 975 37 68
1950126N09151 1950 24 WP MM DORIS 1950-05-14 15:00:00 ET 37.1246 154.071 main 994 994 __P___________ -1 37.1246 154.071 9 975 29 72
1950126N09151 1950 24 WP MM DORIS 1950-05-14 18:00:00 ET 37.5000 155.700 main 1028 1028 __O___________ -1 37.5000 155.700 9 975 27 73
1950126N09151 1950 24 WP MM DORIS 1950-05-14 21:00:00 ET 37.8930 157.323 main 1061 1061 __P___________ -1 37.8930 157.323 9 977 28 73
1950126N09151 1950 24 WP MM DORIS 1950-05-15 00:00:00 ET 38.3000 159.100 main 1119 1119 __O___________ -1 38.3000 159.100 9 980 32 75
1950126N09151 1950 24 WP MM DORIS 1950-05-15 03:00:00 ET 38.7028 161.272 main 1210 1210 __P___________ -1 38.7028 161.272 9 982 37 76
1950126N09151 1950 24 WP MM DORIS 1950-05-15 06:00:00 ET 39.2000 163.700 main 1325 1325 __O___________ -1 39.2000 163.700 9 985 41 73
1950126N09151 1950 24 WP MM DORIS 1950-05-15 09:00:00 ET 39.9159 166.308 main 1401 1401 __P___________ -1 39.9159 166.308 9 987 42 71
1950126N09151 1950 24 WP MM DORIS 1950-05-15 12:00:00 ET 40.6000 168.900 main 1465 1465 __O___________ -1 40.6000 168.900 9 990 39 73
1950126N09151 1950 24 WP MM DORIS 1950-05-15 15:00:00 ET 41.0357 171.198 main 1551 1547 __P___________ -1 41.0357 171.198 9 990 34 78
1950126N09151 1950 24 WP MM DORIS 1950-05-15 18:00:00 ET 41.3000 173.300 main 1633 __O___________ -1 41.3000 173.300 9 990 32 80

デジタル台風データ・検索

IBTrACS Databaseについて

本データベースは、米国NOAAが公開する1842年以降の世界の熱帯低気圧のベストトラックデータアーカイブInternational Best Track Archive for Climate Stewardship (IBTrACS)を、ウェブで閲覧しやすい形式に変換したものです。

最終更新日:2021-11-26